Time;durP1;ratioP1;P1;durP2;ratioP2;P2;SDS_P1;SDS_P2;PMS_P1;PMS_P2;Temp;Humidity;BMP_temperature;BMP_pressure;BME280_temperature;BME280_humidity;BME280_pressure;Samples;Min_cycle;Max_cycle;Signal;HPM_P1;HPM_P2
2021/12/06 00:00:19;;;;;;;11.67;10.47;;;8.30;99.90;;;;;;4880234;29;20515;-68
2021/12/06 00:02:46;;;;;;;11.13;10.00;;;8.30;99.90;;;;;;4883791;29;20474;-74
2021/12/06 00:05:14;;;;;;;11.00;9.80;;;8.20;99.90;;;;;;4899113;29;20523;-68
2021/12/06 00:07:40;;;;;;;10.83;9.77;;;8.30;99.90;;;;;;4899075;29;20507;-68
2021/12/06 00:10:08;;;;;;;10.93;9.93;;;8.30;99.90;;;;;;4899792;29;20480;-68
2021/12/06 00:12:34;;;;;;;11.63;10.03;;;8.30;99.90;;;;;;4900381;29;20418;-68
2021/12/06 00:15:00;;;;;;;11.43;10.33;;;8.30;99.90;;;;;;4882842;29;20503;-68
2021/12/06 00:17:25;;;;;;;11.90;10.33;;;8.20;99.90;;;;;;4899463;29;20430;-68
2021/12/06 00:19:51;;;;;;;10.70;9.70;;;8.20;99.90;;;;;;4898370;29;20194;-69
2021/12/06 00:22:23;;;;;;;11.77;10.50;;;8.20;99.90;;;;;;4899798;29;20226;-68
2021/12/06 00:24:54;;;;;;;11.10;9.80;;;8.20;99.90;;;;;;4899373;29;20655;-73
2021/12/06 00:27:20;;;;;;;11.97;10.37;;;8.20;99.90;;;;;;4899541;29;20490;-68
2021/12/06 00:29:47;;;;;;;13.10;9.50;;;8.20;99.90;;;;;;4899375;29;20429;-71
2021/12/06 00:32:13;;;;;;;12.33;10.80;;;8.20;99.90;;;;;;4898945;29;20475;-68
2021/12/06 00:34:40;;;;;;;12.30;10.77;;;8.10;99.90;;;;;;4899510;29;20439;-68
2021/12/06 00:37:29;;;;;;;11.80;10.60;;;8.10;99.90;;;;;;4898726;29;20792;-68
2021/12/06 00:39:58;;;;;;;12.50;11.27;;;8.10;99.90;;;;;;4898773;29;20414;-68
2021/12/06 00:42:30;;;;;;;13.57;10.33;;;8.10;99.90;;;;;;4898996;29;20427;-68
2021/12/06 00:44:57;;;;;;;11.73;10.57;;;8.10;99.90;;;;;;4898038;29;20606;-68
2021/12/06 00:47:23;;;;;;;11.37;10.33;;;8.20;99.90;;;;;;4899356;29;20415;-68
2021/12/06 00:49:50;;;;;;;11.70;10.60;;;8.10;99.90;;;;;;4898925;29;20908;-74
2021/12/06 00:52:17;;;;;;;13.47;11.00;;;8.10;99.90;;;;;;4899064;29;20419;-68
2021/12/06 00:54:44;;;;;;;11.20;10.00;;;8.00;99.90;;;;;;4899307;29;20499;-68
2021/12/06 00:57:13;;;;;;;12.00;10.80;;;7.90;99.90;;;;;;4898429;29;20411;-68
2021/12/06 00:59:39;;;;;;;12.30;10.50;;;7.90;99.90;;;;;;4890427;29;20423;-68
2021/12/06 01:02:07;;;;;;;11.73;10.70;;;7.90;99.90;;;;;;4897962;29;20503;-68
2021/12/06 01:04:36;;;;;;;12.00;11.00;;;7.90;99.90;;;;;;4899130;29;20480;-67
2021/12/06 01:07:04;;;;;;;10.17;9.20;;;7.80;99.90;;;;;;4898197;29;20435;-68
2021/12/06 01:09:30;;;;;;;10.40;9.47;;;7.70;99.50;;;;;;4898512;29;20423;-68
2021/12/06 01:11:56;;;;;;;14.00;11.13;;;7.70;99.50;;;;;;4898124;29;20425;-68
2021/12/06 01:14:22;;;;;;;11.57;10.37;;;7.50;99.60;;;;;;4898955;29;20421;-68
2021/12/06 01:16:48;;;;;;;11.10;9.70;;;7.50;99.90;;;;;;4898456;29;20595;-67
2021/12/06 01:19:14;;;;;;;11.00;10.00;;;7.40;99.90;;;;;;4898336;29;20878;-68
2021/12/06 01:21:48;;;;;;;11.60;10.40;;;7.40;99.90;;;;;;4899094;29;20418;-68
2021/12/06 01:24:17;;;;;;;11.97;10.77;;;7.30;99.80;;;;;;4897600;29;20458;-68
2021/12/06 01:40:21;;;;;;;10.90;9.80;;;7.00;99.90;;;;;;4898197;29;20562;-69
2021/12/06 01:42:47;;;;;;;10.57;9.60;;;7.00;99.90;;;;;;4898117;29;20419;-68
2021/12/06 01:45:13;;;;;;;10.23;9.33;;;7.00;99.90;;;;;;4865318;29;20717;-68
2021/12/06 01:47:41;;;;;;;12.13;10.40;;;7.00;99.90;;;;;;4898234;29;20460;-68
2021/12/06 01:50:15;;;;;;;11.87;9.67;;;7.00;99.90;;;;;;4897757;29;20504;-68
2021/12/06 01:52:45;;;;;;;11.33;10.13;;;6.90;99.90;;;;;;4897792;29;20433;-67
2021/12/06 01:55:22;;;;;;;10.20;9.20;;;6.80;99.90;;;;;;4897031;29;20411;-68
2021/12/06 01:57:48;;;;;;;11.93;10.40;;;6.70;99.90;;;;;;4898181;29;20401;-68
2021/12/06 02:00:19;;;;;;;10.20;9.20;;;6.80;99.90;;;;;;4897244;29;20429;-68
2021/12/06 02:02:45;;;;;;;9.90;8.90;;;6.80;99.90;;;;;;4897924;29;20497;-68
2021/12/06 02:05:11;;;;;;;10.37;9.40;;;6.70;99.90;;;;;;4897283;29;20512;-68
2021/12/06 02:07:37;;;;;;;11.50;10.40;;;6.70;99.90;;;;;;4880968;29;20195;-67
2021/12/06 02:10:05;;;;;;;9.77;8.77;;;6.80;99.90;;;;;;4896884;29;20422;-68
2021/12/06 02:12:31;;;;;;;10.57;8.73;;;6.70;99.90;;;;;;4911262;29;20578;-68
2021/12/06 02:15:05;;;;;;;15.03;9.70;;;6.60;99.80;;;;;;4879916;29;20922;-68
2021/12/06 02:17:37;;;;;;;12.07;10.40;;;6.60;99.90;;;;;;4898188;29;20425;-68
2021/12/06 02:20:08;;;;;;;13.57;11.00;;;6.60;99.90;;;;;;4897044;29;20419;-68
2021/12/06 02:22:37;;;;;;;11.70;10.50;;;6.50;99.90;;;;;;4897690;29;20759;-68
2021/12/06 02:25:13;;;;;;;11.97;10.77;;;6.50;99.90;;;;;;4896101;29;20550;-68
2021/12/06 02:27:40;;;;;;;12.03;10.93;;;6.50;99.90;;;;;;4897407;29;20458;-68
2021/12/06 02:30:08;;;;;;;12.48;11.00;;;6.40;99.90;;;;;;4896812;29;20421;-68
2021/12/06 02:32:35;;;;;;;15.77;11.10;;;6.40;99.90;;;;;;4897688;29;20259;-68
2021/12/06 02:35:02;;;;;;;15.53;11.87;;;6.50;99.90;;;;;;4896703;29;20520;-69
2021/12/06 02:37:31;;;;;;;13.50;11.43;;;6.40;99.90;;;;;;4897450;29;20429;-68
2021/12/06 02:39:58;;;;;;;18.40;11.27;;;6.50;99.90;;;;;;4880029;29;20445;-73
2021/12/06 02:42:25;;;;;;;13.33;11.80;;;6.40;99.90;;;;;;4897407;29;20517;-68
2021/12/06 02:44:52;;;;;;;14.00;11.37;;;6.40;99.90;;;;;;4897275;29;20560;-68
2021/12/06 02:47:19;;;;;;;21.43;12.40;;;6.40;99.90;;;;;;4896371;29;21037;-68
2021/12/06 02:49:46;;;;;;;13.20;11.80;;;6.50;99.90;;;;;;4897284;29;20806;-68
2021/12/06 02:52:13;;;;;;;18.93;11.80;;;6.50;99.90;;;;;;4879769;29;20773;-68
2021/12/06 02:54:40;;;;;;;16.93;11.37;;;6.40;99.90;;;;;;4896900;29;20913;-68
2021/12/06 02:57:19;;;;;;;22.40;10.80;;;6.40;99.90;;;;;;4896354;29;20439;-69
2021/12/06 02:59:46;;;;;;;12.00;10.43;;;6.40;99.90;;;;;;4897017;29;20652;-68
2021/12/06 03:02:19;;;;;;;19.67;11.00;;;6.30;99.90;;;;;;4896458;29;20392;-68
2021/12/06 03:04:46;;;;;;;11.80;10.60;;;6.30;99.90;;;;;;4896816;29;20466;-68
2021/12/06 03:07:12;;;;;;;10.70;9.70;;;6.40;99.90;;;;;;4879134;29;20473;-68
2021/12/06 03:09:40;;;;;;;16.80;10.70;;;6.40;99.90;;;;;;4897107;29;20401;-67
2021/12/06 03:12:13;;;;;;;11.93;9.80;;;6.40;99.90;;;;;;4896313;29;20411;-68
2021/12/06 03:14:45;;;;;;;14.23;10.75;;;6.30;99.90;;;;;;4897177;29;20253;-69
2021/12/06 03:17:14;;;;;;;11.65;10.40;;;6.30;99.90;;;;;;4896292;29;20183;-68
2021/12/06 03:19:41;;;;;;;11.70;10.70;;;6.20;99.90;;;;;;4896933;29;20190;-68
2021/12/06 03:22:09;;;;;;;25.85;13.70;;;6.20;99.90;;;;;;4896050;29;20487;-68
2021/12/06 03:24:36;;;;;;;13.03;11.70;;;6.20;99.90;;;;;;4899479;29;20212;-68
2021/12/06 03:27:02;;;;;;;36.70;12.20;;;6.10;99.90;;;;;;4900091;29;20405;-70
2021/12/06 03:29:28;;;;;;;16.70;11.10;;;6.10;99.90;;;;;;4900295;29;20633;-68
2021/12/06 03:31:55;;;;;;;24.40;11.77;;;6.10;99.90;;;;;;4900528;29;20463;-68
2021/12/06 03:34:26;;;;;;;38.50;12.07;;;6.10;99.90;;;;;;4899895;29;20462;-68
2021/12/06 03:36:53;;;;;;;39.30;11.82;;;6.10;99.90;;;;;;4900633;29;20268;-68
2021/12/06 03:39:40;;;;;;;13.88;10.90;;;6.00;99.90;;;;;;4899819;29;20257;-68
2021/12/06 03:42:10;;;;;;;36.95;11.27;;;6.00;99.90;;;;;;4896912;29;20553;-68
2021/12/06 03:44:36;;;;;;;31.67;10.77;;;6.00;99.90;;;;;;4899960;29;20216;-68
2021/12/06 03:47:14;;;;;;;37.63;9.82;;;6.00;99.90;;;;;;4899757;29;20194;-74
2021/12/06 03:49:42;;;;;;;10.95;9.75;;;6.00;99.90;;;;;;4900495;29;20172;-68
2021/12/06 03:52:08;;;;;;;14.25;9.77;;;5.90;99.90;;;;;;4899356;29;20181;-68
2021/12/06 03:54:35;;;;;;;11.52;10.45;;;5.90;99.90;;;;;;4900053;29;20640;-68
2021/12/06 03:57:02;;;;;;;14.05;9.98;;;5.90;99.90;;;;;;4899836;29;20187;-73
2021/12/06 03:59:29;;;;;;;21.15;10.30;;;5.90;99.90;;;;;;4900117;29;20184;-72
2021/12/06 04:01:55;;;;;;;14.55;10.57;;;5.90;99.90;;;;;;4899974;29;20289;-67
2021/12/06 04:04:21;;;;;;;15.53;9.90;;;5.90;99.90;;;;;;4899072;29;20330;-68
2021/12/06 04:06:48;;;;;;;11.00;9.20;;;5.90;99.90;;;;;;4899629;29;20439;-68
2021/12/06 04:09:14;;;;;;;16.25;10.20;;;5.80;99.90;;;;;;4899242;29;20578;-67
2021/12/06 04:11:42;;;;;;;10.57;9.50;;;5.80;99.90;;;;;;4900012;29;20183;-68
2021/12/06 04:14:08;;;;;;;10.85;9.80;;;5.80;99.90;;;;;;4899216;29;20404;-68
2021/12/06 04:16:34;;;;;;;10.27;9.30;;;5.80;99.90;;;;;;4899731;29;20188;-68
2021/12/06 04:19:00;;;;;;;11.60;10.60;;;5.80;99.90;;;;;;4899649;29;20392;-72
2021/12/06 04:21:26;;;;;;;10.20;9.30;;;5.70;99.90;;;;;;4899314;29;20526;-68
2021/12/06 04:23:53;;;;;;;11.35;10.15;;;5.30;99.90;;;;;;4899557;29;20206;-68
2021/12/06 04:26:19;;;;;;;11.23;10.15;;;5.90;99.90;;;;;;4898944;29;20188;-68
2021/12/06 04:28:48;;;;;;;11.25;10.15;;;5.80;99.90;;;;;;4899701;29;20184;-70
2021/12/06 04:31:16;;;;;;;12.40;10.02;;;5.80;99.90;;;;;;4898265;29;20191;-72
2021/12/06 04:33:42;;;;;;;16.35;11.20;;;5.80;99.90;;;;;;4883127;29;20183;-72
2021/12/06 04:36:08;;;;;;;14.37;11.50;;;5.90;99.90;;;;;;4897387;29;20271;-72
2021/12/06 04:38:34;;;;;;;18.88;10.88;;;5.90;99.90;;;;;;4882870;29;20497;-71
2021/12/06 04:41:00;;;;;;;18.63;11.35;;;6.10;99.90;;;;;;4899533;29;20240;-71
2021/12/06 04:43:26;;;;;;;12.20;10.80;;;6.10;99.90;;;;;;4898435;29;20247;-71
2021/12/06 04:45:52;;;;;;;29.43;10.03;;;6.30;99.90;;;;;;4898836;29;20669;-71
2021/12/06 04:48:18;;;;;;;13.67;10.10;;;6.20;99.90;;;;;;4896863;29;20436;-72
2021/12/06 04:50:44;;;;;;;11.00;9.90;;;6.30;99.90;;;;;;4897664;29;20187;-72
2021/12/06 04:53:14;;;;;;;16.50;10.60;;;6.30;99.90;;;;;;4897227;29;20190;-72
2021/12/06 04:55:47;;;;;;;10.43;9.20;;;6.40;99.90;;;;;;4898239;29;20436;-69
2021/12/06 04:58:17;;;;;;;9.10;8.20;;;6.50;99.90;;;;;;4899116;29;20791;-68
2021/12/06 05:00:54;;;;;;;10.70;9.70;;;6.50;99.90;;;;;;4896916;29;20448;-69
2021/12/06 05:03:20;;;;;;;9.43;8.43;;;6.50;99.90;;;;;;4897901;29;20483;-69
2021/12/06 05:05:55;;;;;;;10.27;9.00;;;6.50;99.60;;;;;;4899419;29;20460;-68
2021/12/06 05:08:28;;;;;;;9.87;8.77;;;6.50;99.50;;;;;;4898806;29;20765;-68
2021/12/06 05:10:56;;;;;;;9.50;8.53;;;6.30;99.30;;;;;;4898990;29;20402;-68
2021/12/06 05:13:22;;;;;;;9.60;8.70;;;6.20;99.50;;;;;;4898507;29;20403;-68
2021/12/06 05:15:48;;;;;;;10.55;8.45;;;6.00;99.60;;;;;;4899231;29;20184;-68
2021/12/06 05:18:14;;;;;;;9.03;8.23;;;5.80;99.90;;;;;;4898306;29;20215;-69
2021/12/06 05:20:39;;;;;;;9.37;8.47;;;5.70;99.90;;;;;;4899124;29;20263;-68
2021/12/06 05:23:08;;;;;;;12.63;8.33;;;5.80;99.90;;;;;;4898146;29;20439;-69
2021/12/06 05:25:33;;;;;;;8.90;7.95;;;5.70;99.90;;;;;;4898848;29;20541;-68
2021/12/06 05:28:00;;;;;;;13.10;8.33;;;5.70;99.90;;;;;;4899088;29;20191;-69
2021/12/06 05:30:26;;;;;;;14.93;8.73;;;5.80;99.90;;;;;;4897674;29;20430;-68
2021/12/06 05:32:53;;;;;;;10.02;9.02;;;5.70;99.90;;;;;;4898929;29;20258;-68
2021/12/06 05:35:20;;;;;;;16.83;8.82;;;5.70;99.90;;;;;;4898254;29;20192;-68
2021/12/06 05:37:49;;;;;;;9.60;8.05;;;5.60;99.90;;;;;;4898903;29;20176;-68
2021/12/06 05:40:19;;;;;;;11.38;8.10;;;5.50;99.90;;;;;;4898512;29;20207;-68
2021/12/06 05:42:46;;;;;;;9.43;8.40;;;5.50;99.90;;;;;;4898332;29;20540;-68
2021/12/06 05:45:15;;;;;;;23.13;10.05;;;5.60;99.90;;;;;;4898072;29;20211;-68
2021/12/06 05:47:41;;;;;;;13.48;9.23;;;5.40;99.90;;;;;;4898600;29;20582;-68
2021/12/06 05:50:08;;;;;;;20.60;8.10;;;5.30;99.90;;;;;;4898032;29;20197;-69
2021/12/06 05:52:34;;;;;;;10.98;7.60;;;5.40;99.90;;;;;;4898536;29;20420;-68
2021/12/06 05:55:00;;;;;;;16.05;7.40;;;5.40;99.90;;;;;;4898481;29;20275;-68
2021/12/06 05:57:26;;;;;;;8.07;7.28;;;5.40;99.90;;;;;;4897048;29;20183;-68
2021/12/06 05:59:52;;;;;;;36.50;8.85;;;5.40;99.90;;;;;;4898022;29;20171;-69
2021/12/06 06:02:18;;;;;;;9.30;7.90;;;5.40;99.90;;;;;;4903186;29;20187;-68
2021/12/06 06:04:44;;;;;;;10.10;8.30;;;5.40;99.90;;;;;;4898412;29;20207;-68
2021/12/06 06:07:10;;;;;;;14.38;8.30;;;5.30;99.90;;;;;;4897710;29;20191;-69
2021/12/06 06:09:36;;;;;;;31.77;9.80;;;5.00;99.90;;;;;;4897842;29;20179;-68
2021/12/06 06:12:04;;;;;;;40.43;9.40;;;5.30;99.90;;;;;;4898123;29;20187;-68
2021/12/06 06:14:30;;;;;;;10.93;8.68;;;5.30;99.90;;;;;;4897485;29;20415;-69
2021/12/06 06:17:06;;;;;;;10.82;9.50;;;5.20;99.90;;;;;;4898133;29;20184;-69
2021/12/06 06:19:32;;;;;;;18.63;9.35;;;5.20;99.90;;;;;;4898105;29;20252;-68
2021/12/06 06:21:58;;;;;;;9.67;8.67;;;5.30;99.90;;;;;;4898050;29;20574;-68
2021/12/06 06:24:23;;;;;;;20.47;9.27;;;5.30;99.90;;;;;;4897486;29;20239;-69
2021/12/06 06:26:49;;;;;;;11.23;9.50;;;5.30;99.90;;;;;;4897839;29;20239;-68
2021/12/06 06:29:16;;;;;;;15.33;10.53;;;5.10;99.90;;;;;;4897430;29;20183;-69
2021/12/06 06:31:42;;;;;;;13.38;8.73;;;5.30;99.90;;;;;;4897979;29;20394;-68
2021/12/06 06:34:09;;;;;;;27.15;9.13;;;5.40;99.90;;;;;;4896992;29;20235;-70
2021/12/06 06:36:35;;;;;;;9.88;8.52;;;5.40;99.90;;;;;;4912394;29;20190;-68
2021/12/06 06:39:02;;;;;;;22.60;9.15;;;5.40;99.90;;;;;;4897617;29;20198;-68
2021/12/06 06:41:30;;;;;;;11.95;9.68;;;5.40;99.90;;;;;;4896875;29;20182;-68
2021/12/06 06:43:57;;;;;;;9.88;8.52;;;5.30;99.90;;;;;;4897339;29;20180;-68
2021/12/06 06:46:29;;;;;;;9.15;7.80;;;5.30;99.90;;;;;;4896488;29;20178;-68
2021/12/06 06:48:56;;;;;;;11.23;8.50;;;5.30;99.90;;;;;;4896826;29;20171;-68
2021/12/06 06:51:23;;;;;;;9.77;8.60;;;5.30;99.90;;;;;;4895148;29;20230;-69
2021/12/06 06:53:49;;;;;;;11.60;7.90;;;5.30;99.90;;;;;;4896124;29;20179;-68
2021/12/06 06:56:15;;;;;;;31.42;9.82;;;5.40;99.90;;;;;;4895220;29;20270;-68
2021/12/06 06:58:41;;;;;;;12.53;8.90;;;5.30;99.90;;;;;;4895394;29;20679;-68
2021/12/06 07:01:07;;;;;;;24.52;9.50;;;5.30;99.90;;;;;;4896109;29;20207;-68
2021/12/06 07:03:33;;;;;;;12.30;8.37;;;5.10;99.90;;;;;;4894862;29;20269;-68
2021/12/06 07:06:00;;;;;;;19.33;9.50;;;5.30;99.90;;;;;;4896091;29;20578;-68
2021/12/06 07:08:26;;;;;;;13.77;8.52;;;5.20;99.90;;;;;;4895391;29;20882;-68
2021/12/06 07:10:52;;;;;;;21.77;8.53;;;5.20;99.90;;;;;;4895954;29;20194;-68
2021/12/06 07:13:18;;;;;;;14.43;8.70;;;5.10;99.90;;;;;;4895280;29;20186;-68
2021/12/06 07:15:44;;;;;;;9.35;8.05;;;5.10;99.90;;;;;;4895958;29;20202;-69
2021/12/06 07:18:09;;;;;;;11.53;8.50;;;5.10;99.90;;;;;;4895589;29;20222;-69
2021/12/06 07:20:35;;;;;;;15.53;9.27;;;5.10;99.90;;;;;;4897476;29;20183;-68
2021/12/06 07:23:03;;;;;;;16.67;7.15;;;5.10;99.90;;;;;;4897453;29;20266;-68
2021/12/06 07:25:29;;;;;;;12.32;8.02;;;5.10;99.90;;;;;;4896728;29;20548;-68
2021/12/06 07:27:56;;;;;;;17.15;7.47;;;5.10;99.90;;;;;;4897329;29;20175;-68
2021/12/06 07:30:22;;;;;;;8.65;7.40;;;5.00;99.90;;;;;;4896655;29;20179;-68
2021/12/06 07:32:50;;;;;;;9.77;8.80;;;5.00;99.90;;;;;;4896872;29;20202;-68
2021/12/06 07:35:16;;;;;;;8.40;7.60;;;5.00;99.90;;;;;;4896526;29;20195;-68
2021/12/06 07:37:44;;;;;;;14.23;8.68;;;5.00;99.90;;;;;;4897082;29;20199;-68
2021/12/06 07:40:12;;;;;;;18.13;8.88;;;5.00;99.90;;;;;;4896989;29;20547;-68
2021/12/06 07:42:38;;;;;;;18.45;8.90;;;5.00;99.90;;;;;;4896716;29;20202;-68
2021/12/06 07:45:09;;;;;;;15.17;9.57;;;5.00;99.90;;;;;;4895464;29;20203;-68
2021/12/06 07:47:37;;;;;;;16.98;10.32;;;4.90;99.90;;;;;;4895770;29;20412;-68
2021/12/06 07:50:05;;;;;;;19.00;9.95;;;4.90;99.90;;;;;;4895630;29;20179;-68
2021/12/06 07:52:31;;;;;;;11.63;9.52;;;4.90;99.90;;;;;;4895365;29;20271;-68
2021/12/06 07:54:59;;;;;;;15.70;10.50;;;4.90;99.90;;;;;;4896872;29;20617;-70
2021/12/06 07:57:26;;;;;;;14.20;10.90;;;4.90;99.90;;;;;;4885967;29;20960;-69
2021/12/06 07:59:52;;;;;;;14.77;10.63;;;5.00;99.90;;;;;;4896663;29;20258;-69
2021/12/06 08:02:17;;;;;;;14.53;10.60;;;5.00;99.90;;;;;;4898936;29;20264;-67
2021/12/06 08:04:43;;;;;;;13.37;10.87;;;5.00;99.90;;;;;;4892832;29;20466;-69
2021/12/06 08:07:09;;;;;;;22.90;11.60;;;5.00;99.90;;;;;;4902975;29;20194;-70
2021/12/06 08:09:35;;;;;;;16.97;10.90;;;5.00;99.90;;;;;;4895376;29;20434;-70
2021/12/06 08:12:00;;;;;;;16.23;11.37;;;5.10;99.90;;;;;;4899437;29;20238;-71
2021/12/06 08:14:26;;;;;;;15.07;12.67;;;5.10;99.90;;;;;;4899193;29;20179;-75
2021/12/06 08:16:52;;;;;;;15.20;12.17;;;4.90;99.90;;;;;;4899714;29;20266;-76
2021/12/06 08:19:18;;;;;;;14.80;13.30;;;5.80;99.90;;;;;;4899088;29;20906;-75
2021/12/06 08:21:44;;;;;;;15.33;11.27;;;6.60;99.90;;;;;;4899357;29;20187;-75
2021/12/06 08:24:11;;;;;;;19.00;12.33;;;7.40;99.90;;;;;;4899380;29;20634;-75
2021/12/06 08:26:41;;;;;;;14.37;11.83;;;8.10;99.90;;;;;;4899384;29;20435;-76
2021/12/06 08:29:08;;;;;;;17.80;11.83;;;8.80;99.90;;;;;;4899618;29;20431;-76
2021/12/06 08:31:35;;;;;;;23.53;13.00;;;9.30;99.20;;;;;;4898921;29;20483;-76
2021/12/06 08:34:01;;;;;;;17.87;11.07;;;9.70;96.90;;;;;;4899579;29;20443;-75
2021/12/06 08:36:27;;;;;;;13.37;11.60;;;10.10;96.00;;;;;;4898258;29;20428;-76
2021/12/06 08:38:54;;;;;;;14.87;12.13;;;10.50;95.20;;;;;;4882187;29;20463;-75
2021/12/06 08:41:24;;;;;;;13.03;10.70;;;10.70;93.00;;;;;;4898711;29;20408;-76
2021/12/06 08:43:53;;;;;;;12.70;10.10;;;10.90;91.70;;;;;;4899071;29;20469;-76
2021/12/06 08:46:46;;;;;;;10.87;9.83;;;11.30;92.50;;;;;;4898859;29;20461;-76
2021/12/06 08:49:12;;;;;;;12.50;9.80;;;11.70;91.70;;;;;;4893084;29;20480;-75
2021/12/06 08:51:44;;;;;;;19.37;9.90;;;11.90;90.90;;;;;;4899641;29;20414;-79
2021/12/06 08:54:12;;;;;;;11.03;9.03;;;12.10;90.10;;;;;;4899630;29;20720;-76
2021/12/06 08:56:38;;;;;;;15.03;11.03;;;12.10;89.50;;;;;;4899364;29;20425;-75
2021/12/06 08:59:06;;;;;;;13.07;10.00;;;12.30;88.30;;;;;;4903550;29;20941;-74
2021/12/06 09:01:34;;;;;;;10.27;9.17;;;12.50;88.70;;;;;;4917621;29;20417;-76
2021/12/06 09:04:00;;;;;;;12.53;10.00;;;12.70;88.40;;;;;;4917845;29;20466;-76
2021/12/06 09:06:26;;;;;;;11.30;9.60;;;12.80;86.80;;;;;;4917694;29;20430;-76
2021/12/06 09:08:54;;;;;;;14.83;9.20;;;13.00;82.90;;;;;;4913210;29;20550;-76
2021/12/06 09:11:20;;;;;;;12.17;9.97;;;13.10;82.80;;;;;;4907227;29;20437;-73
2021/12/06 09:13:45;;;;;;;10.20;9.20;;;13.20;81.80;;;;;;4899400;29;20902;-73
2021/12/06 09:16:13;;;;;;;12.00;10.70;;;13.40;82.10;;;;;;4899496;29;20263;-73
2021/12/06 09:18:41;;;;;;;11.97;10.80;;;13.60;82.70;;;;;;4899301;29;20530;-73
2021/12/06 09:21:11;;;;;;;12.57;9.90;;;13.80;81.00;;;;;;4898832;29;20429;-72
2021/12/06 09:23:37;;;;;;;12.50;10.90;;;13.90;81.00;;;;;;4898723;29;20453;-75
2021/12/06 09:26:05;;;;;;;12.13;10.77;;;13.90;79.60;;;;;;4898957;29;20457;-74
2021/12/06 09:28:31;;;;;;;23.20;11.53;;;13.90;77.50;;;;;;4898184;29;20461;-75
2021/12/06 09:30:58;;;;;;;12.20;10.90;;;14.00;77.80;;;;;;4898655;29;20596;-73
2021/12/06 09:33:24;;;;;;;11.73;10.53;;;14.00;77.40;;;;;;4897221;29;20956;-73
2021/12/06 09:35:54;;;;;;;12.43;11.13;;;14.10;76.00;;;;;;4898512;29;20431;-74
2021/12/06 09:38:22;;;;;;;13.00;11.70;;;14.10;75.90;;;;;;4898476;29;20433;-74
2021/12/06 09:40:51;;;;;;;14.90;10.90;;;14.20;76.50;;;;;;4898543;29;20890;-73
2021/12/06 09:43:18;;;;;;;13.37;11.60;;;14.30;75.10;;;;;;4897848;29;20485;-75
2021/12/06 09:45:45;;;;;;;12.40;11.20;;;14.40;75.30;;;;;;4898743;29;20845;-73
2021/12/06 09:48:14;;;;;;;16.27;14.57;;;14.50;77.40;;;;;;4898862;29;20411;-73
2021/12/06 09:50:45;;;;;;;12.40;11.20;;;14.30;72.80;;;;;;4897845;29;20408;-73
2021/12/06 09:53:14;;;;;;;12.70;10.73;;;14.20;75.00;;;;;;4898216;29;20470;-73
2021/12/06 09:55:42;;;;;;;13.60;10.07;;;14.20;84.50;;;;;;4898078;29;20440;-73
2021/12/06 09:58:08;;;;;;;15.83;11.30;;;14.20;76.80;;;;;;4898082;29;20933;-73
2021/12/06 10:00:41;;;;;;;11.93;10.73;;;14.10;74.80;;;;;;4897596;29;20426;-73
2021/12/06 10:03:08;;;;;;;16.00;10.97;;;13.90;72.90;;;;;;4898148;29;20513;-73
2021/12/06 10:05:35;;;;;;;11.90;10.80;;;13.80;73.30;;;;;;4897550;29;20458;-73
2021/12/06 10:08:02;;;;;;;11.53;10.10;;;13.80;72.80;;;;;;4897540;29;20448;-73
2021/12/06 10:10:29;;;;;;;17.07;11.10;;;13.80;72.40;;;;;;4896314;29;20421;-73
2021/12/06 10:12:58;;;;;;;13.37;11.97;;;13.80;73.60;;;;;;4896818;29;20832;-74
2021/12/06 10:15:28;;;;;;;12.87;11.70;;;13.90;74.20;;;;;;4895915;29;20412;-73
2021/12/06 10:17:56;;;;;;;13.10;11.70;;;14.00;73.50;;;;;;4896806;29;20999;-73
2021/12/06 10:20:23;;;;;;;14.50;10.83;;;14.00;72.30;;;;;;4896829;29;20436;-80
2021/12/06 10:22:50;;;;;;;12.97;11.77;;;14.20;72.50;;;;;;4885527;29;20416;-70
2021/12/06 10:25:16;;;;;;;12.07;10.93;;;14.40;71.40;;;;;;4892432;29;20856;-70
2021/12/06 10:27:55;;;;;;;13.23;11.90;;;14.50;70.30;;;;;;4897182;29;20430;-69
2021/12/06 10:30:24;;;;;;;12.30;11.20;;;14.70;70.20;;;;;;4897136;29;20653;-69
2021/12/06 10:32:59;;;;;;;13.73;12.33;;;14.80;70.10;;;;;;4896898;29;20449;-69
2021/12/06 10:35:25;;;;;;;13.80;12.40;;;14.70;71.00;;;;;;4896911;29;20960;-70
2021/12/06 10:37:57;;;;;;;13.77;12.37;;;14.70;71.90;;;;;;4897636;29;20428;-69
2021/12/06 10:40:27;;;;;;;13.67;12.37;;;14.80;71.90;;;;;;4896900;29;20176;-70
2021/12/06 10:42:55;;;;;;;14.50;12.60;;;14.70;71.90;;;;;;4897505;29;20401;-76
2021/12/06 10:45:36;;;;;;;15.40;12.53;;;14.70;72.90;;;;;;4895951;29;20900;-71
2021/12/06 10:48:22;;;;;;;14.13;12.63;;;14.60;72.90;;;;;;4879000;29;20409;-70
2021/12/06 10:50:51;;;;;;;13.90;12.53;;;14.40;73.90;;;;;;4878590;29;20423;-70
2021/12/06 10:53:23;;;;;;;15.10;12.30;;;14.20;75.20;;;;;;4882755;29;20426;-69
2021/12/06 10:55:52;;;;;;;13.90;12.17;;;14.00;76.00;;;;;;4897732;29;20752;-70
2021/12/06 10:58:24;;;;;;;13.03;11.63;;;13.80;77.20;;;;;;4897575;29;20431;-70
2021/12/06 11:00:55;;;;;;;12.67;11.50;;;13.60;79.10;;;;;;4897730;29;20406;-69
2021/12/06 11:03:23;;;;;;;12.97;11.63;;;13.50;79.50;;;;;;4897058;29;20474;-77
2021/12/06 11:05:58;;;;;;;13.30;11.83;;;13.50;79.50;;;;;;4897469;29;20469;-71
2021/12/06 11:08:25;;;;;;;13.60;12.13;;;13.40;80.20;;;;;;4897062;29;20428;-71
2021/12/06 11:11:08;;;;;;;13.30;12.00;;;13.50;80.80;;;;;;4897876;29;20581;-70
2021/12/06 11:13:38;;;;;;;13.13;11.83;;;13.30;82.00;;;;;;4896986;29;20451;-71
2021/12/06 11:16:11;;;;;;;12.10;11.00;;;13.50;81.40;;;;;;4897418;29;20414;-71
2021/12/06 11:18:44;;;;;;;14.00;11.87;;;13.60;81.00;;;;;;4896856;29;20403;-71
2021/12/06 11:21:18;;;;;;;12.80;11.53;;;13.60;81.20;;;;;;4897316;29;20419;-71
2021/12/06 11:24:21;;;;;;;12.47;11.27;;;13.50;83.00;;;;;;4897122;29;20438;-71
2021/12/06 11:27:01;;;;;;;12.10;11.00;;;13.60;80.70;;;;;;4897484;29;20437;-71
2021/12/06 11:29:31;;;;;;;11.83;10.73;;;13.50;81.90;;;;;;4896764;29;20410;-71
2021/12/06 11:32:23;;;;;;;11.83;10.70;;;13.40;80.60;;;;;;4897304;29;20449;-71
2021/12/06 11:34:51;;;;;;;11.60;10.47;;;13.20;80.00;;;;;;4894422;29;20495;-70
2021/12/06 11:37:21;;;;;;;12.20;10.87;;;12.70;81.40;;;;;;4911666;29;20917;-71
2021/12/06 11:40:03;;;;;;;11.57;10.47;;;12.30;82.70;;;;;;4897207;29;20396;-71
2021/12/06 11:42:29;;;;;;;12.77;11.40;;;12.00;84.50;;;;;;4896922;29;20478;-71
2021/12/06 11:44:55;;;;;;;10.80;9.70;;;11.70;86.70;;;;;;4898453;29;20450;-71
2021/12/06 11:47:22;;;;;;;12.17;11.00;;;11.60;88.50;;;;;;4900712;29;20409;-71
2021/12/06 11:49:53;;;;;;;12.60;11.20;;;11.60;89.90;;;;;;4900531;29;20181;-71
2021/12/06 11:52:31;;;;;;;13.23;10.90;;;11.60;88.70;;;;;;4900604;29;20866;-71
2021/12/06 11:55:08;;;;;;;11.50;10.40;;;11.50;88.30;;;;;;4901072;29;20404;-71
2021/12/06 11:57:39;;;;;;;12.40;11.13;;;11.60;90.90;;;;;;4900171;29;20780;-71
2021/12/06 12:00:11;;;;;;;13.70;12.30;;;11.60;91.80;;;;;;4900600;29;20406;-71
2021/12/06 12:02:49;;;;;;;12.80;11.37;;;11.70;91.90;;;;;;4899435;29;20892;-71
2021/12/06 12:05:17;;;;;;;14.20;12.20;;;11.80;91.60;;;;;;4900729;29;20460;-71
2021/12/06 12:07:56;;;;;;;13.23;11.97;;;11.90;91.10;;;;;;4899890;29;20482;-71
2021/12/06 12:10:35;;;;;;;11.90;10.80;;;11.90;90.60;;;;;;4900697;29;20516;-71
2021/12/06 12:13:01;;;;;;;11.53;10.33;;;11.90;91.60;;;;;;4900460;29;20425;-71
2021/12/06 12:15:28;;;;;;;12.03;10.83;;;11.90;91.40;;;;;;4899626;29;20746;-79
2021/12/06 12:17:54;;;;;;;11.60;10.50;;;11.90;91.20;;;;;;4899987;29;20428;-71
2021/12/06 12:20:24;;;;;;;13.10;11.27;;;12.00;90.70;;;;;;4900051;29;20411;-71
2021/12/06 12:22:57;;;;;;;13.30;12.10;;;12.00;90.80;;;;;;4899443;29;20417;-71
2021/12/06 12:25:31;;;;;;;13.10;11.90;;;12.10;91.30;;;;;;4883435;29;20440;-71
2021/12/06 12:28:08;;;;;;;14.27;12.50;;;12.10;90.70;;;;;;4900289;29;20409;-71
2021/12/06 12:30:36;;;;;;;16.60;12.40;;;12.10;90.60;;;;;;4882932;29;20405;-71
2021/12/06 12:33:06;;;;;;;12.63;11.43;;;12.20;90.50;;;;;;4900512;29;20420;-71
2021/12/06 12:35:32;;;;;;;15.00;11.57;;;12.20;90.30;;;;;;4882708;29;20424;-71
2021/12/06 12:37:59;;;;;;;12.40;11.20;;;12.30;90.60;;;;;;4899893;29;20412;-71
2021/12/06 12:40:37;;;;;;;8.90;8.00;;;12.20;90.50;;;;;;4899916;29;20413;-69
2021/12/06 12:43:13;;;;;;;6.83;6.13;;;12.10;90.20;;;;;;4899998;29;20403;-69
2021/12/06 12:45:43;;;;;;;6.93;6.33;;;12.10;85.60;;;;;;4899249;29;20981;-69
2021/12/06 12:48:11;;;;;;;7.03;6.53;;;12.00;85.40;;;;;;4899880;29;20490;-69
2021/12/06 12:50:38;;;;;;;6.67;5.97;;;12.00;85.50;;;;;;4898859;29;20760;-69
2021/12/06 12:53:11;;;;;;;6.13;5.63;;;12.00;85.30;;;;;;4899738;29;20424;-69
2021/12/06 12:55:45;;;;;;;6.80;6.20;;;12.10;84.30;;;;;;4898471;29;20506;-69
2021/12/06 12:58:22;;;;;;;6.87;6.37;;;12.10;84.60;;;;;;4899295;29;20886;-69